METAR stanice u blizini

 

LYBE - Beograd / Surčin, Srbija
Ažurirano: 31/01/2023 04:30
Light snow, Pretežno oblačno
Light snow, Pretežno oblačno
 Pravac vetra Z
Vetar: Z 22 km/h
Temperatura: 1°C
Osećaj hladnoće: -4°C
Tačka rose: 0°C
Vlažnost: 93%
Pritisak: 1016 hPa
Pregled: Light Snow
Oblaci: Mostly Cloudy
Vidljivost: 10 km
Cloud details: Mostly Cloudy 1219 m
2023/01/31 03:30 LYBE 310330Z 27012KT 9999 -SN BKN040 01/M00 Q1016 NOSIG
LYBT - Beograd / Batajnica, Srbija
Ažurirano: 31/01/2023 04:30
Mostly Cloudy
Mostly Cloudy
 Pravac vetra Z
Vetar: Z 22 km/h
Temperatura: 2°C
Osećaj hladnoće: -3°C
Tačka rose: 0°C
Vlažnost: 87%
Pritisak: 1016 hPa
Oblaci: Mostly Cloudy
Vidljivost: 10 km
Cloud details: Mostly Cloudy 1372 m
2023/01/31 03:30 LYBT 310330Z 27012KT 9999 BKN045 02/00 Q1016 NOSIG
LYVR - Vršac, Srbija
Ažurirano: 31/01/2023 04:30
Oblačno
Oblačno
 Pravac vetra J
Vetar: J 6 km/h
Temperatura: 1°C
Tačka rose: 0°C
Vlažnost: 93%
Pritisak: 1016 hPa
Oblaci: Oblačno
Vidljivost: 10 km
Cloud details: Oblačno 1006 m
2023/01/31 03:30 LYVR 310330Z AUTO 19003KT 160V240 9999 OVC033/// 01/M00 Q1016
 
LYKV - Lađevci, Srbija
Ažurirano: 31/01/2023 04:30
Slaba kiša, Pretežno oblačno
Slaba kiša, Pretežno oblačno
 Pravac vetra varies
Vetar: varies 2 km/h
Temperatura: 0°C
Tačka rose: 0°C
Vlažnost: 100%
Pritisak: 1017 hPa
Pregled: Light Rain
Oblaci: Mostly Cloudy
Vidljivost: 8 km
Cloud details: Partly Cloudy 396 m
Mostly Cloudy 762 m
2023/01/31 03:30 LYKV 310330Z VRB01KT 8000 -RA SCT013 BKN025 00/00 Q1017 NOSIG
LYNI - Niš, Srbija
Ažurirano: 31/01/2023 04:30
Mostly Cloudy
Mostly Cloudy
 Pravac vetra calm
Vetar: Tišina
Temperatura: 0°C
Tačka rose: -2°C
Vlažnost: 87%
Pritisak: 1016 hPa
Oblaci: Mostly Cloudy
Vidljivost: 8 km
Cloud details: Partly Cloudy 518 m
Mostly Cloudy 914 m
2023/01/31 03:30 LYNI 310330Z 00000KT 8000 SCT017 BKN030 00/M02 Q1016 NOSIG
BKPR - Priština, Srbija
Ažurirano: 31/01/2023 05:00
Mostly Cloudy
Mostly Cloudy
 Pravac vetra SZ
Vetar: SZ 17 km/h
Temperatura: 1°C
Osećaj hladnoće: -3°C
Tačka rose: -2°C
Vlažnost: 81%
Pritisak: 1015 hPa
Oblaci: Mostly Cloudy
Vidljivost: 10 km
Cloud details: Few Clouds 1189 m
Mostly Cloudy 1920 m
2023/01/31 04:00 BKPR 310400Z 31009KT 9999 FEW039 BKN063 01/M02 Q1015 NOSIG
 
LHPP - Pecs / Pogany, Hungary
Ažurirano: 31/01/2023 04:15
Vedro
Vedro
 Pravac vetra Z
Vetar: Z 24 km/h
Temperatura: 0°C
Osećaj hladnoće: -6°C
Tačka rose: -3°C
Vlažnost: 80%
Pritisak: 1016 hPa
Pregled: Vedro
Vidljivost: greater than 10 km
2023/01/31 03:15 LHPP 310315Z AUTO 28013KT CAVOK M00/M03 Q1016
LHUD - Szeged, Hungary
Ažurirano: 04/07/2019 01:45
NOT Current
Vedro
Vedro
 Pravac vetra S
Vetar: S 7 km/h
Temperatura: 18°C
Tačka rose: 13°C
Vlažnost: 73%
Pritisak: 1019 hPa
Pregled: Vedro
Vidljivost: greater than 10 km
2019/07/03 23:45 LHUD 032345Z 35004KT CAVOK 18/13 Q1019
LRTR - Timisoara, Romania
Ažurirano: 31/01/2023 04:30
Mostly Cloudy
Mostly Cloudy
 Pravac vetra Z
Vetar: Z 19 km/h
Temperatura: 1°C
Osećaj hladnoće: -4°C
Tačka rose: 0°C
Vlažnost: 93%
Pritisak: 1013 hPa
Oblaci: Mostly Cloudy
Vidljivost: 10 km
Cloud details: Mostly Cloudy 945 m
2023/01/31 03:30 LRTR 310330Z 26010KT 9999 BKN031 01/M00 Q1013
 
LRCV - Craiova, Romania
Ažurirano: 31/01/2023 04:30
Vedro
Vedro
 Pravac vetra Z
Vetar: Z 24 km/h
Temperatura: 0°C
Osećaj hladnoće: -6°C
Tačka rose: -4°C
Vlažnost: 75%
Pritisak: 1010 hPa
Pregled: Vedro
Vidljivost: greater than 10 km
2023/01/31 03:30 LRCV 310330Z 28013KT CAVOK 00/M04 Q1010
LBSF - Sofia, Bulgaria
Ažurirano: 31/01/2023 05:00
Partly Cloudy
Partly Cloudy
 Pravac vetra Z
Vetar: Z 28 km/h
Temperatura: 0°C
Osećaj hladnoće: -6°C
Tačka rose: -5°C
Vlažnost: 69%
Pritisak: 1012 hPa
Oblaci: Partly Cloudy
Vidljivost: 10 km
2023/01/31 04:00 LBSF 310400Z AUTO 27015KT 9999 NSC M00/M05 Q1012 NOSIG
LWSK - Skoplje, Makedonija
Ažurirano: 31/01/2023 04:30
Mostly Cloudy
Mostly Cloudy
 Pravac vetra calm
Vetar: Tišina
Temperatura: -1°C
Tačka rose: -2°C
Vlažnost: 93%
Pritisak: 1016 hPa
Oblaci: Mostly Cloudy
Vidljivost: 10 km
Cloud details: Partly Cloudy 1524 m
Mostly Cloudy 2743 m
2023/01/31 03:30 LWSK 310330Z 00000KT 9999 SCT050 BKN090 M01/M02 Q1016 NOSIG
 
LYPG - Podgorica, Crna Gora
Ažurirano: 31/01/2023 04:30
Vedro
Vedro
 Pravac vetra S
Vetar: S 24 km/h
Temperatura: 8°C
Osećaj hladnoće: 4°C
Tačka rose: -5°C
Vlažnost: 40%
Pritisak: 1016 hPa
Pregled: Vedro
Vidljivost: greater than 10 km
2023/01/31 03:30 LYPG 310330Z AUTO 36013KT CAVOK 08/M05 Q1016
LQSA - Sarajevo, Bosna i Hercegovina
Ažurirano: 31/01/2023 04:30
Mist, Oblačno
Mist, Oblačno
 Pravac vetra calm
Vetar: Tišina
Temperatura: -2°C
Tačka rose: -2°C
Vlažnost: 100%
Pritisak: 1018 hPa
Pregled: Mist
Oblaci: Oblačno
Vidljivost: 2 km
Cloud details: Mostly Cloudy 213 m
Oblačno 762 m
2023/01/31 03:30 LQSA 310330Z 00000KT 1500 R11/2000N BR BKN007 OVC025 M02/M02 Q1018
LDOS - Osijek, Hrvatksa
Ažurirano: 31/01/2023 04:30
Vedro
Vedro
 Pravac vetra ZJZ
Vetar: ZJZ 17 km/h
Temperatura: 1°C
Osećaj hladnoće: -3°C
Tačka rose: -1°C
Vlažnost: 87%
Pritisak: 1017 hPa
Pregled: Vedro
Vidljivost: greater than 10 km
2023/01/31 03:30 LDOS 310330Z 25009KT CAVOK 01/M01 Q1017